»·PEaware :: N1BA KSAN-KSBP

N1BA :: KSAN-KSBP

FLIGHT INFORMATION

Flight Status: Arrived
Operator: Privately registered:
United States
More flights under this callsign
Pilot: Brian A. (9771)
Aircraft: SOCATA TBM-900
(TBM9)
More flights by this aircraft type
Origin: KSAN San Diego Intl-Lindbergh
United States
Destination: KSBP San Luis Co Regl
United States
More flights between these airports :: More routes between these airports
Route: CWARD2 LAX V259 VTU V25 RZS WYNNR
File this flight plan on PilotEdge
Remarks:
Altitude:
(Current/Filed)
20,000ft
Speed:
(Current/Filed)
325kts
Departed: 30-Aug-20 11:33 AM
Arrived: 30-Aug-20 12:27 PM
Distance/Time
Traveled:
228nm/0:53
Distance/Time
To Go:
Arrived

Flight Plot

Page will automatically refresh every two minutes.

Flight plan parsing failed; only flown route is shown


Map Options




Map Legend


Flown Route
Filed Route
Departure Airport
Arrival Airport
Navaid (VOR, NDB)
Fix

Horizontal Profiles

Position Reports

Time Latitude Longitude Heading Altitude Ground
Speed
30-Aug-20 11:13 32.732422 -117.176643 193 18ft 0kts
30-Aug-20 11:14 32.732422 -117.176643 193 18ft 0kts
30-Aug-20 11:15 32.732422 -117.176643 193 18ft 0kts
30-Aug-20 11:16 32.732422 -117.176643 193 18ft 0kts
30-Aug-20 11:17 32.732422 -117.176643 193 18ft 0kts
30-Aug-20 11:18 32.732422 -117.176643 193 18ft 0kts
30-Aug-20 11:19 32.732422 -117.176643 193 18ft 0kts
30-Aug-20 11:20 32.732422 -117.176643 193 18ft 0kts
30-Aug-20 11:21 32.732422 -117.176643 193 18ft 0kts
30-Aug-20 11:22 32.732422 -117.176643 193 18ft 0kts
30-Aug-20 11:23 32.732422 -117.176643 193 18ft 0kts
30-Aug-20 11:24 32.732422 -117.176643 193 18ft 0kts
30-Aug-20 11:25 32.732422 -117.176643 193 18ft 0kts
30-Aug-20 11:26 32.732422 -117.176643 193 18ft 0kts
30-Aug-20 11:27 32.732422 -117.176643 193 18ft 0kts
30-Aug-20 11:28 32.732378 -117.176656 193 18ft 0kts
30-Aug-20 11:29 32.731509 -117.176684 119 18ft 7kts
30-Aug-20 11:30 32.730969 -117.175413 117 18ft 0kts
30-Aug-20 11:31 32.730756 -117.175008 131 18ft 21kts
30-Aug-20 11:32 32.736176 -117.202401 281 435ft 132kts
30-Aug-20 11:33 32.757320 -117.242398 315 2744ft 129kts
30-Aug-20 11:34 32.784194 -117.288005 286 3374ft 211kts
30-Aug-20 11:35 32.814631 -117.341678 304 5308ft 182kts
30-Aug-20 11:36 32.845529 -117.389575 303 7265ft 183kts
30-Aug-20 11:37 32.876945 -117.438368 303 9301ft 190kts
30-Aug-20 11:38 32.909937 -117.489662 303 11082ft 199kts
30-Aug-20 11:39 32.944202 -117.542990 302 12691ft 205kts
30-Aug-20 11:40 32.979629 -117.598226 302 14444ft 213kts
30-Aug-20 11:41 33.015923 -117.654881 302 16425ft 217kts
30-Aug-20 11:42 33.053152 -117.713069 301 18145ft 224kts
30-Aug-20 11:43 33.099443 -117.765798 314 19654ft 237kts
30-Aug-20 11:44 33.154769 -117.822146 314 20003ft 286kts
30-Aug-20 11:45 33.226108 -117.870469 346 20011ft 312kts
30-Aug-20 11:46 33.311940 -117.892138 335 19993ft 314kts
30-Aug-20 11:47 33.367380 -117.967762 304 20011ft 304kts
30-Aug-20 11:48 33.421952 -118.045960 305 20005ft 304kts
30-Aug-20 11:49 33.476693 -118.124211 305 20008ft 304kts
30-Aug-20 11:50 33.531436 -118.202635 305 20024ft 304kts
30-Aug-20 11:51 33.585629 -118.280436 305 20033ft 304kts
30-Aug-20 11:52 33.640279 -118.359066 305 20037ft 305kts
30-Aug-20 11:53 33.694947 -118.437886 305 20001ft 302kts
30-Aug-20 11:54 33.748485 -118.515251 305 20001ft 299kts
30-Aug-20 11:55 33.801518 -118.592054 305 19992ft 298kts
30-Aug-20 11:56 33.853888 -118.668051 304 19982ft 298kts
30-Aug-20 11:57 33.907062 -118.745383 304 19976ft 298kts
30-Aug-20 11:58 33.960122 -118.822724 304 19979ft 298kts
30-Aug-20 11:59 34.013541 -118.900785 305 19988ft 303kts
30-Aug-20 12:00 34.062517 -118.972501 306 19993ft 309kts
30-Aug-20 12:01 34.116741 -119.052736 303 19982ft 314kts
30-Aug-20 12:02 34.165579 -119.141095 301 19984ft 315kts
30-Aug-20 12:03 34.214247 -119.229566 301 19986ft 316kts
30-Aug-20 12:04 34.263084 -119.318558 301 19990ft 316kts
30-Aug-20 12:05 34.311765 -119.407489 301 19991ft 316kts
30-Aug-20 12:06 34.359586 -119.495081 302 19581ft 299kts
30-Aug-20 12:07 34.412087 -119.571179 313 18472ft 291kts
30-Aug-20 12:08 34.467434 -119.642058 314 17289ft 287kts
30-Aug-20 12:09 34.522289 -119.712393 314 15780ft 284kts
30-Aug-20 12:10 34.576584 -119.782138 314 14045ft 283kts
30-Aug-20 12:11 34.630287 -119.851255 314 12234ft 277kts
30-Aug-20 12:12 34.682522 -119.918617 314 10437ft 274kts
30-Aug-20 12:13 34.733890 -119.985015 313 10003ft 269kts
30-Aug-20 12:14 34.784949 -120.051124 313 8853ft 260kts
30-Aug-20 12:15 34.834924 -120.110308 318 7983ft 237kts
30-Aug-20 12:17 34.884382 -120.166608 318 7998ft 246kts
30-Aug-20 12:18 34.934834 -120.224106 318 8004ft 248kts
30-Aug-20 12:19 34.983073 -120.279173 317 6675ft 223kts
30-Aug-20 12:20 35.027175 -120.329589 317 4846ft 211kts
30-Aug-20 12:21 35.065936 -120.373961 317 4254ft 201kts
30-Aug-20 12:22 35.109053 -120.423403 317 4029ft 222kts
30-Aug-20 12:23 35.147970 -120.484434 305 3418ft 220kts
30-Aug-20 12:24 35.181679 -120.543623 308 2299ft 205kts
30-Aug-20 12:25 35.207579 -120.588782 305 1280ft 126kts
30-Aug-20 12:26 35.224463 -120.618622 304 621ft 94kts
30-Aug-20 12:27 35.236563 -120.639665 309 215ft 19kts
30-Aug-20 12:28 35.236875 -120.638320 127 215ft 5kts
30-Aug-20 12:29 35.238059 -120.636997 21 215ft 0kts
30-Aug-20 12:30 35.238059 -120.636997 21 215ft 0kts
30-Aug-20 12:31 35.238059 -120.636997 21 215ft 0kts
30-Aug-20 12:32 35.238059 -120.636997 21 215ft 0kts

Navigation Log

Ident Type
Flight plan parsing failed, navigation log unavailable